sensor_id;sensor_type;location;lat;lon;timestamp;pressure;altitude;pressure_sealevel;temperature;humidity
7376;BME280;3728;42.266;24.944;2023-03-03T00:01:55;99915.75;;;7.48;100.00
7376;BME280;3728;42.266;24.944;2023-03-03T00:04:23;99905.44;;;7.72;100.00
7376;BME280;3728;42.266;24.944;2023-03-03T00:06:51;99908.84;;;7.72;100.00
7376;BME280;3728;42.266;24.944;2023-03-03T00:09:18;99895.94;;;7.86;100.00
7376;BME280;3728;42.266;24.944;2023-03-03T00:11:47;99897.88;;;7.70;100.00
7376;BME280;3728;42.266;24.944;2023-03-03T00:14:29;99893.94;;;7.73;100.00
7376;BME280;3728;42.266;24.944;2023-03-03T00:17:00;99896.06;;;7.66;100.00
7376;BME280;3728;42.266;24.944;2023-03-03T00:19:38;99885.28;;;7.43;100.00
7376;BME280;3728;42.266;24.944;2023-03-03T00:22:16;99884.19;;;7.49;100.00
7376;BME280;3728;42.266;24.944;2023-03-03T00:24:49;99873.66;;;7.70;100.00
7376;BME280;3728;42.266;24.944;2023-03-03T00:27:30;99884.56;;;7.77;100.00
7376;BME280;3728;42.266;24.944;2023-03-03T00:30:02;99881.22;;;7.66;100.00
7376;BME280;3728;42.266;24.944;2023-03-03T00:32:43;99872.63;;;7.66;100.00
7376;BME280;3728;42.266;24.944;2023-03-03T00:35:36;99865.25;;;7.39;100.00
7376;BME280;3728;42.266;24.944;2023-03-03T00:38:15;99862.41;;;7.30;100.00
7376;BME280;3728;42.266;24.944;2023-03-03T00:40:47;99858.94;;;7.45;100.00
7376;BME280;3728;42.266;24.944;2023-03-03T00:43:34;99851.94;;;7.40;100.00
7376;BME280;3728;42.266;24.944;2023-03-03T00:46:02;99853.59;;;7.26;100.00
7376;BME280;3728;42.266;24.944;2023-03-03T00:48:41;99846.22;;;7.38;100.00
7376;BME280;3728;42.266;24.944;2023-03-03T00:53:49;99842.59;;;7.39;100.00
7376;BME280;3728;42.266;24.944;2023-03-03T00:56:17;99841.38;;;7.22;100.00
7376;BME280;3728;42.266;24.944;2023-03-03T00:58:44;99836.97;;;7.17;100.00
7376;BME280;3728;42.266;24.944;2023-03-03T01:01:19;99826.56;;;7.17;100.00
7376;BME280;3728;42.266;24.944;2023-03-03T01:03:50;99827.66;;;7.11;100.00
7376;BME280;3728;42.266;24.944;2023-03-03T01:06:17;99825.53;;;7.18;100.00
7376;BME280;3728;42.266;24.944;2023-03-03T01:08:45;99816.13;;;7.22;100.00
7376;BME280;3728;42.266;24.944;2023-03-03T01:11:16;99813.84;;;7.11;100.00
7376;BME280;3728;42.266;24.944;2023-03-03T01:13:48;99810.47;;;7.05;100.00
7376;BME280;3728;42.266;24.944;2023-03-03T01:16:18;99813.53;;;7.17;100.00
7376;BME280;3728;42.266;24.944;2023-03-03T01:18:45;99819.88;;;7.01;100.00
7376;BME280;3728;42.266;24.944;2023-03-03T01:21:16;99809.94;;;7.08;100.00
7376;BME280;3728;42.266;24.944;2023-03-03T01:23:43;99810.28;;;6.97;100.00
7376;BME280;3728;42.266;24.944;2023-03-03T01:26:11;99812.56;;;7.08;100.00
7376;BME280;3728;42.266;24.944;2023-03-03T01:28:38;99804.69;;;7.18;100.00
7376;BME280;3728;42.266;24.944;2023-03-03T01:31:06;99811.22;;;7.16;100.00
7376;BME280;3728;42.266;24.944;2023-03-03T01:33:34;99807.94;;;7.39;100.00
7376;BME280;3728;42.266;24.944;2023-03-03T01:36:03;99808.06;;;7.19;100.00
7376;BME280;3728;42.266;24.944;2023-03-03T01:38:34;99817.16;;;7.21;100.00
7376;BME280;3728;42.266;24.944;2023-03-03T01:41:02;99814.47;;;7.36;100.00
7376;BME280;3728;42.266;24.944;2023-03-03T01:43:31;99817.47;;;7.53;100.00
7376;BME280;3728;42.266;24.944;2023-03-03T01:51:08;99802.16;;;7.42;100.00
7376;BME280;3728;42.266;24.944;2023-03-03T01:54:02;99800.38;;;7.37;100.00
7376;BME280;3728;42.266;24.944;2023-03-03T01:56:31;99801.16;;;7.38;100.00
7376;BME280;3728;42.266;24.944;2023-03-03T01:59:03;99805.03;;;7.40;100.00
7376;BME280;3728;42.266;24.944;2023-03-03T02:01:36;99801.44;;;7.36;100.00
7376;BME280;3728;42.266;24.944;2023-03-03T02:04:03;99805.66;;;7.32;100.00
7376;BME280;3728;42.266;24.944;2023-03-03T02:06:36;99803.03;;;7.32;100.00
7376;BME280;3728;42.266;24.944;2023-03-03T02:12:00;99807.81;;;7.54;100.00
7376;BME280;3728;42.266;24.944;2023-03-03T02:14:34;99806.78;;;7.55;100.00
7376;BME280;3728;42.266;24.944;2023-03-03T02:17:01;99803.66;;;7.53;100.00
7376;BME280;3728;42.266;24.944;2023-03-03T02:22:10;99798.56;;;7.72;100.00
7376;BME280;3728;42.266;24.944;2023-03-03T02:24:45;99798.81;;;7.70;100.00
7376;BME280;3728;42.266;24.944;2023-03-03T02:27:27;99808.41;;;7.46;100.00
7376;BME280;3728;42.266;24.944;2023-03-03T02:29:57;99804.72;;;7.47;100.00
7376;BME280;3728;42.266;24.944;2023-03-03T02:32:34;99799.28;;;7.48;100.00
7376;BME280;3728;42.266;24.944;2023-03-03T02:35:29;99806.75;;;7.60;100.00
7376;BME280;3728;42.266;24.944;2023-03-03T02:38:10;99805.78;;;7.51;100.00
7376;BME280;3728;42.266;24.944;2023-03-03T02:40:46;99799.31;;;7.43;100.00
7376;BME280;3728;42.266;24.944;2023-03-03T02:43:22;99800.69;;;7.31;100.00
7376;BME280;3728;42.266;24.944;2023-03-03T02:45:54;99803.22;;;7.41;100.00
7376;BME280;3728;42.266;24.944;2023-03-03T02:48:23;99803.13;;;7.85;100.00
7376;BME280;3728;42.266;24.944;2023-03-03T02:50:51;99810.41;;;7.54;100.00
7376;BME280;3728;42.266;24.944;2023-03-03T02:53:19;99804.97;;;7.50;100.00
7376;BME280;3728;42.266;24.944;2023-03-03T02:55:46;99802.78;;;7.68;100.00
7376;BME280;3728;42.266;24.944;2023-03-03T02:58:14;99806.06;;;7.78;100.00
7376;BME280;3728;42.266;24.944;2023-03-03T03:00:41;99802.63;;;7.49;100.00
7376;BME280;3728;42.266;24.944;2023-03-03T03:03:09;99810.31;;;7.30;100.00
7376;BME280;3728;42.266;24.944;2023-03-03T03:05:37;99804.19;;;7.84;100.00
7376;BME280;3728;42.266;24.944;2023-03-03T03:08:05;99800.38;;;7.71;100.00
7376;BME280;3728;42.266;24.944;2023-03-03T03:10:34;99802.94;;;7.42;100.00
7376;BME280;3728;42.266;24.944;2023-03-03T03:13:03;99798.88;;;7.26;100.00
7376;BME280;3728;42.266;24.944;2023-03-03T03:15:31;99801.78;;;7.25;100.00
7376;BME280;3728;42.266;24.944;2023-03-03T03:17:59;99803.09;;;7.22;100.00
7376;BME280;3728;42.266;24.944;2023-03-03T03:20:27;99795.06;;;7.14;100.00
7376;BME280;3728;42.266;24.944;2023-03-03T03:22:54;99794.31;;;7.08;100.00
7376;BME280;3728;42.266;24.944;2023-03-03T03:25:22;99793.25;;;7.09;100.00
7376;BME280;3728;42.266;24.944;2023-03-03T03:27:49;99787.03;;;7.05;100.00
7376;BME280;3728;42.266;24.944;2023-03-03T03:30:18;99789.63;;;7.10;100.00
7376;BME280;3728;42.266;24.944;2023-03-03T03:32:47;99786.00;;;7.06;100.00
7376;BME280;3728;42.266;24.944;2023-03-03T03:35:14;99785.97;;;7.11;100.00
7376;BME280;3728;42.266;24.944;2023-03-03T03:37:43;99784.63;;;7.19;100.00
7376;BME280;3728;42.266;24.944;2023-03-03T03:40:11;99779.91;;;7.21;100.00
7376;BME280;3728;42.266;24.944;2023-03-03T03:42:39;99777.06;;;7.17;100.00
7376;BME280;3728;42.266;24.944;2023-03-03T03:45:07;99779.41;;;7.19;100.00
7376;BME280;3728;42.266;24.944;2023-03-03T03:47:35;99780.47;;;7.18;100.00
7376;BME280;3728;42.266;24.944;2023-03-03T03:50:03;99794.00;;;7.20;100.00
7376;BME280;3728;42.266;24.944;2023-03-03T03:52:32;99785.06;;;7.31;100.00
7376;BME280;3728;42.266;24.944;2023-03-03T03:55:01;99797.63;;;7.19;100.00
7376;BME280;3728;42.266;24.944;2023-03-03T03:57:28;99783.09;;;7.13;100.00
7376;BME280;3728;42.266;24.944;2023-03-03T03:59:56;99788.78;;;7.20;100.00
7376;BME280;3728;42.266;24.944;2023-03-03T04:02:24;99781.13;;;7.33;100.00
7376;BME280;3728;42.266;24.944;2023-03-03T04:04:51;99788.72;;;7.30;100.00
7376;BME280;3728;42.266;24.944;2023-03-03T04:07:19;99787.19;;;7.24;100.00
7376;BME280;3728;42.266;24.944;2023-03-03T04:09:47;99786.16;;;7.25;100.00
7376;BME280;3728;42.266;24.944;2023-03-03T04:12:15;99791.13;;;7.16;100.00
7376;BME280;3728;42.266;24.944;2023-03-03T04:14:42;99789.63;;;7.10;100.00
7376;BME280;3728;42.266;24.944;2023-03-03T04:17:17;99783.38;;;7.11;100.00
7376;BME280;3728;42.266;24.944;2023-03-03T04:19:45;99784.16;;;7.07;100.00
7376;BME280;3728;42.266;24.944;2023-03-03T04:22:13;99782.38;;;7.02;100.00
7376;BME280;3728;42.266;24.944;2023-03-03T04:24:42;99787.31;;;7.04;100.00
7376;BME280;3728;42.266;24.944;2023-03-03T04:27:10;99786.03;;;7.01;100.00
7376;BME280;3728;42.266;24.944;2023-03-03T04:29:38;99780.81;;;7.06;100.00
7376;BME280;3728;42.266;24.944;2023-03-03T04:32:06;99789.59;;;7.15;100.00
7376;BME280;3728;42.266;24.944;2023-03-03T04:34:34;99779.13;;;7.25;100.00
7376;BME280;3728;42.266;24.944;2023-03-03T04:37:02;99786.88;;;7.30;100.00
7376;BME280;3728;42.266;24.944;2023-03-03T04:39:30;99781.38;;;7.37;100.00
7376;BME280;3728;42.266;24.944;2023-03-03T04:41:57;99782.19;;;7.32;100.00
7376;BME280;3728;42.266;24.944;2023-03-03T04:44:26;99778.22;;;7.40;100.00
7376;BME280;3728;42.266;24.944;2023-03-03T04:46:53;99778.00;;;7.36;100.00
7376;BME280;3728;42.266;24.944;2023-03-03T04:49:21;99777.19;;;7.41;100.00
7376;BME280;3728;42.266;24.944;2023-03-03T04:51:48;99773.28;;;7.38;100.00
7376;BME280;3728;42.266;24.944;2023-03-03T04:54:16;99779.31;;;7.34;100.00
7376;BME280;3728;42.266;24.944;2023-03-03T04:56:43;99778.25;;;7.35;100.00
7376;BME280;3728;42.266;24.944;2023-03-03T04:59:12;99772.31;;;7.29;100.00
7376;BME280;3728;42.266;24.944;2023-03-03T05:01:41;99778.53;;;7.33;100.00
7376;BME280;3728;42.266;24.944;2023-03-03T05:04:08;99783.19;;;7.36;100.00
7376;BME280;3728;42.266;24.944;2023-03-03T05:06:36;99781.56;;;7.45;100.00
7376;BME280;3728;42.266;24.944;2023-03-03T05:09:04;99780.53;;;7.46;100.00
7376;BME280;3728;42.266;24.944;2023-03-03T05:11:32;99782.88;;;7.43;100.00
7376;BME280;3728;42.266;24.944;2023-03-03T05:13:59;99781.84;;;7.44;100.00
7376;BME280;3728;42.266;24.944;2023-03-03T05:16:28;99784.00;;;7.37;100.00
7376;BME280;3728;42.266;24.944;2023-03-03T05:18:56;99785.81;;;7.36;100.00
7376;BME280;3728;42.266;24.944;2023-03-03T05:21:24;99786.78;;;7.45;100.00
7376;BME280;3728;42.266;24.944;2023-03-03T05:23:51;99793.88;;;7.35;100.00
7376;BME280;3728;42.266;24.944;2023-03-03T05:26:19;99788.41;;;7.36;100.00
7376;BME280;3728;42.266;24.944;2023-03-03T05:28:46;99785.03;;;7.36;100.00
7376;BME280;3728;42.266;24.944;2023-03-03T05:31:14;99785.84;;;7.31;100.00
7376;BME280;3728;42.266;24.944;2023-03-03T05:33:41;99785.28;;;7.39;100.00
7376;BME280;3728;42.266;24.944;2023-03-03T05:36:09;99790.38;;;7.49;100.00
7376;BME280;3728;42.266;24.944;2023-03-03T05:38:36;99783.84;;;7.52;100.00
7376;BME280;3728;42.266;24.944;2023-03-03T05:41:04;99786.72;;;7.55;100.00
7376;BME280;3728;42.266;24.944;2023-03-03T05:43:31;99787.38;;;7.66;100.00
7376;BME280;3728;42.266;24.944;2023-03-03T05:45:59;99788.22;;;7.62;100.00
7376;BME280;3728;42.266;24.944;2023-03-03T05:48:27;99794.44;;;7.66;100.00
7376;BME280;3728;42.266;24.944;2023-03-03T05:50:57;99790.75;;;7.72;100.00
7376;BME280;3728;42.266;24.944;2023-03-03T05:53:28;99790.13;;;7.80;100.00
7376;BME280;3728;42.266;24.944;2023-03-03T05:55:56;99796.94;;;7.76;100.00
7376;BME280;3728;42.266;24.944;2023-03-03T05:58:23;99799.03;;;7.79;100.00
7376;BME280;3728;42.266;24.944;2023-03-03T06:00:51;99795.59;;;7.83;100.00
7376;BME280;3728;42.266;24.944;2023-03-03T06:03:18;99794.03;;;7.82;100.00
7376;BME280;3728;42.266;24.944;2023-03-03T06:05:46;99797.28;;;7.98;100.00
7376;BME280;3728;42.266;24.944;2023-03-03T06:08:14;99799.03;;;8.07;100.00
7376;BME280;3728;42.266;24.944;2023-03-03T06:10:41;99795.69;;;8.02;100.00
7376;BME280;3728;42.266;24.944;2023-03-03T06:13:11;99801.38;;;8.04;100.00
7376;BME280;3728;42.266;24.944;2023-03-03T06:15:39;99799.31;;;8.01;100.00
7376;BME280;3728;42.266;24.944;2023-03-03T06:18:07;99806.06;;;8.07;100.00
7376;BME280;3728;42.266;24.944;2023-03-03T06:20:34;99809.28;;;8.22;100.00
7376;BME280;3728;42.266;24.944;2023-03-03T06:23:04;99803.91;;;8.14;100.00
7376;BME280;3728;42.266;24.944;2023-03-03T06:25:32;99808.34;;;8.13;100.00
7376;BME280;3728;42.266;24.944;2023-03-03T06:28:02;99799.72;;;8.13;100.00
7376;BME280;3728;42.266;24.944;2023-03-03T06:30:29;99806.03;;;8.12;100.00
7376;BME280;3728;42.266;24.944;2023-03-03T06:32:57;99808.44;;;8.03;100.00
7376;BME280;3728;42.266;24.944;2023-03-03T06:35:24;99811.50;;;8.10;100.00
7376;BME280;3728;42.266;24.944;2023-03-03T06:37:56;99811.50;;;8.10;100.00
7376;BME280;3728;42.266;24.944;2023-03-03T06:40:24;99825.06;;;8.12;100.00
7376;BME280;3728;42.266;24.944;2023-03-03T06:42:51;99819.50;;;8.19;100.00
7376;BME280;3728;42.266;24.944;2023-03-03T06:45:19;99811.41;;;8.20;100.00
7376;BME280;3728;42.266;24.944;2023-03-03T06:47:48;99819.22;;;8.20;100.00
7376;BME280;3728;42.266;24.944;2023-03-03T06:50:18;99817.41;;;8.21;100.00
7376;BME280;3728;42.266;24.944;2023-03-03T06:52:47;99820.00;;;8.21;100.00
7376;BME280;3728;42.266;24.944;2023-03-03T06:55:21;99816.56;;;8.25;100.00
7376;BME280;3728;42.266;24.944;2023-03-03T06:57:49;99818.16;;;8.27;100.00
7376;BME280;3728;42.266;24.944;2023-03-03T07:00:24;99808.22;;;8.29;100.00
7376;BME280;3728;42.266;24.944;2023-03-03T07:03:06;99808.88;;;8.39;100.00
7376;BME280;3728;42.266;24.944;2023-03-03T07:05:37;99805.22;;;8.40;99.40
7376;BME280;3728;42.266;24.944;2023-03-03T07:08:12;99809.66;;;8.40;97.67
7376;BME280;3728;42.266;24.944;2023-03-03T07:10:47;99807.41;;;8.57;97.07
7376;BME280;3728;42.266;24.944;2023-03-03T07:13:24;99814.03;;;8.68;95.72
7376;BME280;3728;42.266;24.944;2023-03-03T07:15:58;99818.00;;;8.84;92.95
7376;BME280;3728;42.266;24.944;2023-03-03T07:19:03;99809.97;;;8.80;91.65
7376;BME280;3728;42.266;24.944;2023-03-03T07:21:34;99813.56;;;8.84;91.74
7376;BME280;3728;42.266;24.944;2023-03-03T07:24:21;99813.56;;;8.84;90.18
7376;BME280;3728;42.266;24.944;2023-03-03T07:29:52;99812.28;;;8.63;89.74
7376;BME280;3728;42.266;24.944;2023-03-03T07:32:40;99813.50;;;8.71;89.29
7376;BME280;3728;42.266;24.944;2023-03-03T07:35:37;99821.78;;;8.97;86.29
7376;BME280;3728;42.266;24.944;2023-03-03T07:40:53;99810.91;;;8.89;84.40
7376;BME280;3728;42.266;24.944;2023-03-03T07:46:15;99805.91;;;8.69;85.51
7376;BME280;3728;42.266;24.944;2023-03-03T07:48:49;99802.63;;;8.82;85.45
7376;BME280;3728;42.266;24.944;2023-03-03T07:51:25;99807.59;;;9.03;84.10
7376;BME280;3728;42.266;24.944;2023-03-03T07:54:28;99814.72;;;9.16;81.47
7376;BME280;3728;42.266;24.944;2023-03-03T07:57:38;99808.91;;;9.37;79.92
7376;BME280;3728;42.266;24.944;2023-03-03T08:03:02;99806.03;;;9.20;79.25
7376;BME280;3728;42.266;24.944;2023-03-03T08:05:37;99805.97;;;9.07;79.66
7376;BME280;3728;42.266;24.944;2023-03-03T08:10:52;99803.13;;;8.84;84.07
7376;BME280;3728;42.266;24.944;2023-03-03T08:13:21;99797.91;;;8.84;84.55
7376;BME280;3728;42.266;24.944;2023-03-03T08:18:44;99797.72;;;9.18;80.30
7376;BME280;3728;42.266;24.944;2023-03-03T08:21:17;99797.91;;;9.22;79.96
7376;BME280;3728;42.266;24.944;2023-03-03T08:23:46;99787.69;;;9.07;80.63
7376;BME280;3728;42.266;24.944;2023-03-03T08:26:20;99789.38;;;8.98;81.57
7376;BME280;3728;42.266;24.944;2023-03-03T08:28:48;99784.56;;;9.05;84.05
7376;BME280;3728;42.266;24.944;2023-03-03T08:31:17;99787.94;;;9.42;81.48
7376;BME280;3728;42.266;24.944;2023-03-03T08:34:06;99783.63;;;9.33;79.53
7376;BME280;3728;42.266;24.944;2023-03-03T08:36:34;99784.97;;;9.12;81.00
7376;BME280;3728;42.266;24.944;2023-03-03T08:39:03;99781.53;;;8.98;82.46
7376;BME280;3728;42.266;24.944;2023-03-03T08:41:31;99777.38;;;8.97;83.59
7376;BME280;3728;42.266;24.944;2023-03-03T08:44:01;99782.53;;;9.20;82.82
7376;BME280;3728;42.266;24.944;2023-03-03T08:46:28;99779.13;;;9.20;82.77
7376;BME280;3728;42.266;24.944;2023-03-03T08:48:56;99774.47;;;9.17;85.03
7376;BME280;3728;42.266;24.944;2023-03-03T08:51:23;99773.75;;;9.30;82.95
7376;BME280;3728;42.266;24.944;2023-03-03T08:53:52;99759.25;;;9.37;81.57
7376;BME280;3728;42.266;24.944;2023-03-03T08:56:19;99763.84;;;9.45;82.27
7376;BME280;3728;42.266;24.944;2023-03-03T08:58:47;99765.84;;;9.35;82.70
7376;BME280;3728;42.266;24.944;2023-03-03T09:01:28;99758.56;;;9.32;83.55
7376;BME280;3728;42.266;24.944;2023-03-03T09:03:57;99754.31;;;9.36;83.09
7376;BME280;3728;42.266;24.944;2023-03-03T09:06:25;99749.19;;;9.44;85.02
7376;BME280;3728;42.266;24.944;2023-03-03T09:08:53;99758.53;;;9.50;85.47
7376;BME280;3728;42.266;24.944;2023-03-03T09:11:25;99754.91;;;9.65;85.93
7376;BME280;3728;42.266;24.944;2023-03-03T09:14:15;99756.03;;;9.59;85.96
7376;BME280;3728;42.266;24.944;2023-03-03T09:16:50;99761.47;;;9.62;86.29
7376;BME280;3728;42.266;24.944;2023-03-03T09:22:21;99756.03;;;9.59;86.12
7376;BME280;3728;42.266;24.944;2023-03-03T09:24:56;99760.84;;;9.84;83.63
7376;BME280;3728;42.266;24.944;2023-03-03T09:27:30;99748.25;;;10.00;82.65
7376;BME280;3728;42.266;24.944;2023-03-03T09:30:20;99752.59;;;9.77;82.75
7376;BME280;3728;42.266;24.944;2023-03-03T09:38:57;99743.19;;;9.76;85.52
7376;BME280;3728;42.266;24.944;2023-03-03T09:47:55;99728.94;;;9.82;88.99
7376;BME280;3728;42.266;24.944;2023-03-03T09:56:30;99738.19;;;10.07;84.51
7376;BME280;3728;42.266;24.944;2023-03-03T10:08:01;99722.41;;;10.25;80.43
7376;BME280;3728;42.266;24.944;2023-03-03T10:25:47;99716.38;;;9.84;86.14
7376;BME280;3728;42.266;24.944;2023-03-03T10:40:45;99707.44;;;9.72;84.36
7376;BME280;3728;42.266;24.944;2023-03-03T10:52:56;99705.34;;;9.41;90.63
7376;BME280;3728;42.266;24.944;2023-03-03T10:55:41;99700.63;;;9.43;87.87
7376;BME280;3728;42.266;24.944;2023-03-03T11:10:17;99685.09;;;9.01;93.14
7376;BME280;3728;42.266;24.944;2023-03-03T11:16:14;99674.19;;;9.45;87.10
7376;BME280;3728;42.266;24.944;2023-03-03T11:30:51;99666.00;;;9.65;84.26
7376;BME280;3728;42.266;24.944;2023-03-03T11:36:51;99662.28;;;9.66;83.28
7376;BME280;3728;42.266;24.944;2023-03-03T11:39:36;99659.88;;;9.56;84.30
7376;BME280;3728;42.266;24.944;2023-03-03T11:47:58;99649.13;;;9.71;81.11
7376;BME280;3728;42.266;24.944;2023-03-03T11:51:01;99641.84;;;9.41;84.17
7376;BME280;3728;42.266;24.944;2023-03-03T11:54:02;99640.00;;;9.41;88.14
7376;BME280;3728;42.266;24.944;2023-03-03T11:56:48;99633.66;;;9.75;84.53
7376;BME280;3728;42.266;24.944;2023-03-03T11:59:54;99633.75;;;9.70;84.54
7376;BME280;3728;42.266;24.944;2023-03-03T12:03:07;99634.56;;;10.06;83.72
7376;BME280;3728;42.266;24.944;2023-03-03T12:12:13;99627.22;;;9.94;87.06
7376;BME280;3728;42.266;24.944;2023-03-03T12:24:00;99626.72;;;10.33;84.43
7376;BME280;3728;42.266;24.944;2023-03-03T12:27:07;99619.53;;;10.39;81.92
7376;BME280;3728;42.266;24.944;2023-03-03T12:41:01;99609.31;;;11.26;81.82
7376;BME280;3728;42.266;24.944;2023-03-03T12:46:27;99614.25;;;10.52;87.02
7376;BME280;3728;42.266;24.944;2023-03-03T12:49:04;99608.50;;;10.64;85.03
7376;BME280;3728;42.266;24.944;2023-03-03T12:51:45;99618.91;;;10.19;88.03
7376;BME280;3728;42.266;24.944;2023-03-03T12:54:44;99616.34;;;10.64;85.28
7376;BME280;3728;42.266;24.944;2023-03-03T12:57:37;99609.19;;;10.78;83.18
7376;BME280;3728;42.266;24.944;2023-03-03T13:00:27;99617.19;;;10.37;85.19
7376;BME280;3728;42.266;24.944;2023-03-03T13:06:27;99613.47;;;10.16;88.83
7376;BME280;3728;42.266;24.944;2023-03-03T13:09:07;99610.75;;;10.57;85.32
7376;BME280;3728;42.266;24.944;2023-03-03T13:26:54;99612.00;;;10.23;85.49
7376;BME280;3728;42.266;24.944;2023-03-03T13:29:34;99607.47;;;10.73;82.95
7376;BME280;3728;42.266;24.944;2023-03-03T13:32:30;99609.63;;;10.71;82.55
7376;BME280;3728;42.266;24.944;2023-03-03T13:35:26;99607.13;;;10.66;84.61
7376;BME280;3728;42.266;24.944;2023-03-03T13:37:58;99599.59;;;11.26;77.98
7376;BME280;3728;42.266;24.944;2023-03-03T13:40:42;99595.91;;;10.96;79.58
7376;BME280;3728;42.266;24.944;2023-03-03T13:52:19;99586.44;;;10.43;88.45
7376;BME280;3728;42.266;24.944;2023-03-03T13:55:13;99584.91;;;10.42;87.52
7376;BME280;3728;42.266;24.944;2023-03-03T13:58:05;99580.31;;;10.47;86.97
7376;BME280;3728;42.266;24.944;2023-03-03T14:00:59;99582.22;;;10.33;87.26
7376;BME280;3728;42.266;24.944;2023-03-03T14:04:00;99591.22;;;10.41;86.33
7376;BME280;3728;42.266;24.944;2023-03-03T14:06:32;99577.50;;;10.44;84.29
7376;BME280;3728;42.266;24.944;2023-03-03T14:09:04;99579.78;;;10.37;82.93
7376;BME280;3728;42.266;24.944;2023-03-03T14:11:59;99589.59;;;10.31;81.78
7376;BME280;3728;42.266;24.944;2023-03-03T14:14:51;99579.28;;;10.35;82.92
7376;BME280;3728;42.266;24.944;2023-03-03T14:20:34;99580.28;;;10.39;81.38
7376;BME280;3728;42.266;24.944;2023-03-03T14:23:18;99583.13;;;10.51;81.32
7376;BME280;3728;42.266;24.944;2023-03-03T14:31:27;99575.25;;;10.28;84.37
7376;BME280;3728;42.266;24.944;2023-03-03T14:36:57;99573.50;;;10.10;84.68
7376;BME280;3728;42.266;24.944;2023-03-03T14:39:36;99571.03;;;10.05;84.55
7376;BME280;3728;42.266;24.944;2023-03-03T14:42:29;99573.38;;;10.43;82.71
7376;BME280;3728;42.266;24.944;2023-03-03T14:48:18;99564.25;;;10.84;80.23
7376;BME280;3728;42.266;24.944;2023-03-03T14:51:16;99559.06;;;10.49;82.56
7376;BME280;3728;42.266;24.944;2023-03-03T14:53:59;99555.50;;;10.45;82.67
7376;BME280;3728;42.266;24.944;2023-03-03T14:56:35;99563.84;;;10.47;83.54
7376;BME280;3728;42.266;24.944;2023-03-03T14:59:23;99556.94;;;10.51;83.29
7376;BME280;3728;42.266;24.944;2023-03-03T15:04:44;99558.50;;;10.52;82.54
7376;BME280;3728;42.266;24.944;2023-03-03T15:07:36;99557.88;;;10.32;84.13
7376;BME280;3728;42.266;24.944;2023-03-03T15:10:06;99559.78;;;10.18;84.79
7376;BME280;3728;42.266;24.944;2023-03-03T15:12:40;99559.56;;;10.28;83.30
7376;BME280;3728;42.266;24.944;2023-03-03T15:15:18;99567.50;;;10.23;84.48
7376;BME280;3728;42.266;24.944;2023-03-03T15:18:00;99569.19;;;10.19;83.95
7376;BME280;3728;42.266;24.944;2023-03-03T15:20:38;99565.38;;;10.25;82.95
7376;BME280;3728;42.266;24.944;2023-03-03T15:26:51;99572.41;;;9.89;86.09
7376;BME280;3728;42.266;24.944;2023-03-03T15:29:40;99573.28;;;9.98;85.96
7376;BME280;3728;42.266;24.944;2023-03-03T15:32:48;99571.13;;;10.00;86.10
7376;BME280;3728;42.266;24.944;2023-03-03T15:35:47;99566.97;;;9.99;86.59
7376;BME280;3728;42.266;24.944;2023-03-03T15:38:47;99578.75;;;10.24;86.80
7376;BME280;3728;42.266;24.944;2023-03-03T15:41:51;99568.09;;;10.20;86.11
7376;BME280;3728;42.266;24.944;2023-03-03T15:44:41;99588.97;;;10.12;87.10
7376;BME280;3728;42.266;24.944;2023-03-03T15:56:50;99598.16;;;9.82;87.03
7376;BME280;3728;42.266;24.944;2023-03-03T15:59:42;99584.44;;;9.77;88.36
7376;BME280;3728;42.266;24.944;2023-03-03T16:02:53;99594.88;;;9.90;88.24
7376;BME280;3728;42.266;24.944;2023-03-03T16:11:06;99598.34;;;9.99;86.26
7376;BME280;3728;42.266;24.944;2023-03-03T16:13:50;99602.56;;;9.87;86.40
7376;BME280;3728;42.266;24.944;2023-03-03T16:20:20;99612.81;;;9.70;88.40
7376;BME280;3728;42.266;24.944;2023-03-03T16:23:30;99616.78;;;9.81;88.55
7376;BME280;3728;42.266;24.944;2023-03-03T16:32:27;99627.81;;;9.78;88.93
7376;BME280;3728;42.266;24.944;2023-03-03T16:35:22;99624.53;;;9.72;89.20
7376;BME280;3728;42.266;24.944;2023-03-03T16:40:32;99636.53;;;9.46;91.91
7376;BME280;3728;42.266;24.944;2023-03-03T16:49:24;99628.50;;;9.70;91.44
7376;BME280;3728;42.266;24.944;2023-03-03T16:52:11;99628.59;;;9.78;90.91
7376;BME280;3728;42.266;24.944;2023-03-03T16:55:10;99637.53;;;9.77;90.24
7376;BME280;3728;42.266;24.944;2023-03-03T16:58:23;99639.53;;;10.21;100.00
7376;BME280;3728;42.266;24.944;2023-03-03T17:10:26;99632.97;;;9.69;94.78
7376;BME280;3728;42.266;24.944;2023-03-03T17:13:12;99635.75;;;9.59;95.08
7376;BME280;3728;42.266;24.944;2023-03-03T17:18:43;99648.06;;;9.58;95.59
7376;BME280;3728;42.266;24.944;2023-03-03T17:30:33;99654.31;;;9.30;97.87
7376;BME280;3728;42.266;24.944;2023-03-03T17:33:20;99665.34;;;9.27;98.25
7376;BME280;3728;42.266;24.944;2023-03-03T18:00:02;99700.25;;;9.18;100.00
7376;BME280;3728;42.266;24.944;2023-03-03T18:03:38;99706.53;;;9.17;100.00
7376;BME280;3728;42.266;24.944;2023-03-03T18:06:46;99696.88;;;9.17;100.00
7376;BME280;3728;42.266;24.944;2023-03-03T18:24:29;99690.09;;;9.62;98.41
7376;BME280;3728;42.266;24.944;2023-03-03T18:27:32;99692.41;;;9.50;99.01
7376;BME280;3728;42.266;24.944;2023-03-03T18:30:18;99703.81;;;9.54;98.40
7376;BME280;3728;42.266;24.944;2023-03-03T18:33:08;99708.63;;;9.33;100.00
7376;BME280;3728;42.266;24.944;2023-03-03T18:35:44;99713.25;;;9.23;100.00
7376;BME280;3728;42.266;24.944;2023-03-03T18:38:23;99710.72;;;9.18;100.00
7376;BME280;3728;42.266;24.944;2023-03-03T18:49:02;99710.56;;;9.28;100.00
7376;BME280;3728;42.266;24.944;2023-03-03T18:59:56;99726.94;;;9.15;100.00
7376;BME280;3728;42.266;24.944;2023-03-03T19:02:36;99732.47;;;9.13;100.00
7376;BME280;3728;42.266;24.944;2023-03-03T19:05:33;99734.22;;;9.18;100.00
7376;BME280;3728;42.266;24.944;2023-03-03T19:08:28;99729.16;;;9.08;100.00
7376;BME280;3728;42.266;24.944;2023-03-03T19:11:53;99735.97;;;9.22;100.00
7376;BME280;3728;42.266;24.944;2023-03-03T19:16:56;99734.78;;;9.15;100.00
7376;BME280;3728;42.266;24.944;2023-03-03T19:19:29;99730.34;;;9.15;100.00
7376;BME280;3728;42.266;24.944;2023-03-03T19:22:25;99737.41;;;9.15;100.00
7376;BME280;3728;42.266;24.944;2023-03-03T19:31:27;99743.13;;;8.98;100.00
7376;BME280;3728;42.266;24.944;2023-03-03T19:34:08;99748.94;;;9.14;100.00
7376;BME280;3728;42.266;24.944;2023-03-03T19:39:46;99751.25;;;9.15;100.00